sensor_id;sensor_type;location;lat;lon;timestamp;pressure;altitude;pressure_sealevel;temperature;humidity
10587;BME280;5341;47.606;7.576;2023-10-08T00:00:43;99780.47;;;18.54;41.79
10587;BME280;5341;47.606;7.576;2023-10-08T00:03:15;99783.34;;;18.53;42.08
10587;BME280;5341;47.606;7.576;2023-10-08T00:05:43;99780.22;;;18.49;42.08
10587;BME280;5341;47.606;7.576;2023-10-08T00:08:12;99784.81;;;18.49;41.84
10587;BME280;5341;47.606;7.576;2023-10-08T00:10:42;99780.66;;;18.46;42.03
10587;BME280;5341;47.606;7.576;2023-10-08T00:13:13;99780.03;;;18.44;41.91
10587;BME280;5341;47.606;7.576;2023-10-08T00:15:42;99778.59;;;18.41;41.98
10587;BME280;5341;47.606;7.576;2023-10-08T00:18:18;99776.06;;;18.40;42.09
10587;BME280;5341;47.606;7.576;2023-10-08T00:20:46;99775.44;;;18.38;42.17
10587;BME280;5341;47.606;7.576;2023-10-08T00:23:21;99780.22;;;18.36;42.03
10587;BME280;5341;47.606;7.576;2023-10-08T00:25:51;99770.44;;;18.35;42.12
10587;BME280;5341;47.606;7.576;2023-10-08T00:28:20;99779.81;;;18.32;42.14
10587;BME280;5341;47.606;7.576;2023-10-08T00:30:48;99773.56;;;18.32;41.80
10587;BME280;5341;47.606;7.576;2023-10-08T00:33:15;99765.84;;;18.29;42.10
10587;BME280;5341;47.606;7.576;2023-10-08T00:35:44;99775.00;;;18.28;42.13
10587;BME280;5341;47.606;7.576;2023-10-08T00:38:13;99786.03;;;18.26;42.21
10587;BME280;5341;47.606;7.576;2023-10-08T00:40:46;99779.38;;;18.22;42.34
10587;BME280;5341;47.606;7.576;2023-10-08T00:43:31;99776.91;;;18.21;42.02
10587;BME280;5341;47.606;7.576;2023-10-08T00:46:00;99772.91;;;18.16;42.14
10587;BME280;5341;47.606;7.576;2023-10-08T00:48:29;99766.88;;;18.14;42.40
10587;BME280;5341;47.606;7.576;2023-10-08T00:51:02;99762.50;;;18.13;42.25
10587;BME280;5341;47.606;7.576;2023-10-08T00:53:42;99759.16;;;18.11;42.36
10587;BME280;5341;47.606;7.576;2023-10-08T00:56:10;99753.97;;;18.10;42.43
10587;BME280;5341;47.606;7.576;2023-10-08T00:58:41;99761.25;;;18.09;42.22
10587;BME280;5341;47.606;7.576;2023-10-08T01:01:12;99757.94;;;18.07;42.43
10587;BME280;5341;47.606;7.576;2023-10-08T01:03:42;99762.72;;;18.05;42.39
10587;BME280;5341;47.606;7.576;2023-10-08T01:06:11;99753.72;;;18.05;42.40
10587;BME280;5341;47.606;7.576;2023-10-08T01:08:44;99754.78;;;18.04;42.29
10587;BME280;5341;47.606;7.576;2023-10-08T01:11:17;99757.69;;;18.02;42.23
10587;BME280;5341;47.606;7.576;2023-10-08T01:13:48;99757.06;;;18.00;42.32
10587;BME280;5341;47.606;7.576;2023-10-08T01:16:15;99751.03;;;17.98;42.32
10587;BME280;5341;47.606;7.576;2023-10-08T01:18:44;99756.66;;;17.97;42.51
10587;BME280;5341;47.606;7.576;2023-10-08T01:21:17;99742.28;;;17.96;42.28
10587;BME280;5341;47.606;7.576;2023-10-08T01:24:02;99746.03;;;17.95;42.56
10587;BME280;5341;47.606;7.576;2023-10-08T01:26:32;99736.25;;;17.94;42.32
10587;BME280;5341;47.606;7.576;2023-10-08T01:29:07;99733.72;;;17.93;42.39
10587;BME280;5341;47.606;7.576;2023-10-08T01:31:38;99735.59;;;17.92;42.39
10587;BME280;5341;47.606;7.576;2023-10-08T01:34:06;99735.81;;;17.91;42.43
10587;BME280;5341;47.606;7.576;2023-10-08T01:36:34;99744.13;;;17.89;42.36
10587;BME280;5341;47.606;7.576;2023-10-08T01:39:04;99737.06;;;17.88;42.46
10587;BME280;5341;47.606;7.576;2023-10-08T01:41:36;99751.84;;;17.85;42.53
10587;BME280;5341;47.606;7.576;2023-10-08T01:44:06;99746.84;;;17.82;42.69
10587;BME280;5341;47.606;7.576;2023-10-08T01:46:34;99743.50;;;17.80;42.61
10587;BME280;5341;47.606;7.576;2023-10-08T01:49:02;99737.47;;;17.78;42.78
10587;BME280;5341;47.606;7.576;2023-10-08T01:51:35;99739.31;;;17.78;42.59
10587;BME280;5341;47.606;7.576;2023-10-08T01:54:06;99734.34;;;17.75;42.95
10587;BME280;5341;47.606;7.576;2023-10-08T01:56:37;99736.41;;;17.73;42.76
10587;BME280;5341;47.606;7.576;2023-10-08T01:59:07;99734.75;;;17.72;42.77
10587;BME280;5341;47.606;7.576;2023-10-08T02:01:36;99725.19;;;17.69;42.83
10587;BME280;5341;47.606;7.576;2023-10-08T02:04:05;99732.59;;;17.67;43.03
10587;BME280;5341;47.606;7.576;2023-10-08T02:06:35;99725.75;;;17.65;43.06
10587;BME280;5341;47.606;7.576;2023-10-08T02:09:03;99738.63;;;17.63;42.88
10587;BME280;5341;47.606;7.576;2023-10-08T02:11:43;99735.09;;;17.62;43.07
10587;BME280;5341;47.606;7.576;2023-10-08T02:14:11;99734.69;;;17.58;43.00
10587;BME280;5341;47.606;7.576;2023-10-08T02:16:42;99729.50;;;17.57;43.16
10587;BME280;5341;47.606;7.576;2023-10-08T02:19:10;99736.09;;;17.54;43.06
10587;BME280;5341;47.606;7.576;2023-10-08T02:21:37;99732.78;;;17.52;43.41
10587;BME280;5341;47.606;7.576;2023-10-08T02:24:08;99730.28;;;17.51;43.37
10587;BME280;5341;47.606;7.576;2023-10-08T02:26:38;99728.63;;;17.50;43.12
10587;BME280;5341;47.606;7.576;2023-10-08T02:29:08;99723.41;;;17.48;43.20
10587;BME280;5341;47.606;7.576;2023-10-08T02:31:38;99730.91;;;17.46;43.14
10587;BME280;5341;47.606;7.576;2023-10-08T02:34:06;99725.69;;;17.45;43.09
10587;BME280;5341;47.606;7.576;2023-10-08T02:36:35;99724.84;;;17.44;43.12
10587;BME280;5341;47.606;7.576;2023-10-08T02:39:04;99729.63;;;17.42;43.29
10587;BME280;5341;47.606;7.576;2023-10-08T02:41:40;99725.25;;;17.41;43.45
10587;BME280;5341;47.606;7.576;2023-10-08T02:44:10;99734.41;;;17.40;43.15
10587;BME280;5341;47.606;7.576;2023-10-08T02:46:40;99735.44;;;17.39;43.49
10587;BME280;5341;47.606;7.576;2023-10-08T02:49:08;99729.41;;;17.37;43.21
10587;BME280;5341;47.606;7.576;2023-10-08T02:51:39;99733.34;;;17.35;43.39
10587;BME280;5341;47.606;7.576;2023-10-08T02:54:07;99734.41;;;17.34;43.51
10587;BME280;5341;47.606;7.576;2023-10-08T02:56:43;99730.19;;;17.31;43.46
10587;BME280;5341;47.606;7.576;2023-10-08T02:59:14;99731.25;;;17.30;43.65
10587;BME280;5341;47.606;7.576;2023-10-08T03:01:42;99728.75;;;17.28;43.41
10587;BME280;5341;47.606;7.576;2023-10-08T03:04:10;99728.13;;;17.26;43.46
10587;BME280;5341;47.606;7.576;2023-10-08T03:06:45;99728.31;;;17.25;43.50
10587;BME280;5341;47.606;7.576;2023-10-08T03:09:17;99723.13;;;17.23;43.40
10587;BME280;5341;47.606;7.576;2023-10-08T03:11:49;99722.50;;;17.21;43.58
10587;BME280;5341;47.606;7.576;2023-10-08T03:14:19;99721.66;;;17.21;43.67
10587;BME280;5341;47.606;7.576;2023-10-08T03:16:49;99712.06;;;17.18;43.66
10587;BME280;5341;47.606;7.576;2023-10-08T03:19:17;99712.25;;;17.17;43.57
10587;BME280;5341;47.606;7.576;2023-10-08T03:21:49;99724.13;;;17.16;43.69
10587;BME280;5341;47.606;7.576;2023-10-08T03:24:21;99719.75;;;17.15;43.44
10587;BME280;5341;47.606;7.576;2023-10-08T03:27:04;99716.22;;;17.14;43.38
10587;BME280;5341;47.606;7.576;2023-10-08T03:29:40;99724.53;;;17.13;43.35
10587;BME280;5341;47.606;7.576;2023-10-08T03:32:12;99725.56;;;17.12;43.49
10587;BME280;5341;47.606;7.576;2023-10-08T03:34:45;99730.13;;;17.11;43.68
10587;BME280;5341;47.606;7.576;2023-10-08T03:37:14;99727.63;;;17.10;43.48
10587;BME280;5341;47.606;7.576;2023-10-08T03:39:55;99716.16;;;17.08;43.73
10587;BME280;5341;47.606;7.576;2023-10-08T03:42:51;99724.28;;;17.08;43.63
10587;BME280;5341;47.606;7.576;2023-10-08T03:45:23;99723.44;;;17.07;43.39
10587;BME280;5341;47.606;7.576;2023-10-08T03:48:08;99725.31;;;17.07;43.51
10587;BME280;5341;47.606;7.576;2023-10-08T03:50:41;99730.91;;;17.05;43.39
10587;BME280;5341;47.606;7.576;2023-10-08T03:53:09;99729.25;;;17.04;43.75
10587;BME280;5341;47.606;7.576;2023-10-08T03:55:38;99731.31;;;17.02;43.41
10587;BME280;5341;47.606;7.576;2023-10-08T03:58:07;99735.06;;;17.01;43.46
10587;BME280;5341;47.606;7.576;2023-10-08T04:00:51;99736.31;;;16.98;43.52
10587;BME280;5341;47.606;7.576;2023-10-08T04:03:32;99741.09;;;16.96;43.40
10587;BME280;5341;47.606;7.576;2023-10-08T04:06:17;99720.88;;;16.92;43.44
10587;BME280;5341;47.606;7.576;2023-10-08T04:08:48;99728.97;;;16.92;43.51
10587;BME280;5341;47.606;7.576;2023-10-08T04:11:30;99730.03;;;16.91;43.42
10587;BME280;5341;47.606;7.576;2023-10-08T04:14:01;99721.28;;;16.89;43.83
10587;BME280;5341;47.606;7.576;2023-10-08T04:16:32;99719.41;;;16.90;43.86
10587;BME280;5341;47.606;7.576;2023-10-08T04:19:03;99721.50;;;16.88;43.47
10587;BME280;5341;47.606;7.576;2023-10-08T04:21:30;99719.81;;;16.87;43.69
10587;BME280;5341;47.606;7.576;2023-10-08T04:23:59;99725.44;;;16.85;43.47
10587;BME280;5341;47.606;7.576;2023-10-08T04:26:30;99726.47;;;16.84;43.68
10587;BME280;5341;47.606;7.576;2023-10-08T04:29:00;99720.41;;;16.82;43.60
10587;BME280;5341;47.606;7.576;2023-10-08T04:31:30;99718.72;;;16.81;43.48
10587;BME280;5341;47.606;7.576;2023-10-08T04:34:03;99719.78;;;16.80;43.42
10587;BME280;5341;47.606;7.576;2023-10-08T04:36:42;99715.59;;;16.78;43.48
10587;BME280;5341;47.606;7.576;2023-10-08T04:39:11;99716.44;;;16.78;43.84
10587;BME280;5341;47.606;7.576;2023-10-08T04:41:41;99712.06;;;16.77;43.84
10587;BME280;5341;47.606;7.576;2023-10-08T04:44:09;99718.72;;;16.75;43.45
10587;BME280;5341;47.606;7.576;2023-10-08T04:46:43;99716.00;;;16.75;43.75
10587;BME280;5341;47.606;7.576;2023-10-08T04:49:19;99726.19;;;16.73;43.72
10587;BME280;5341;47.606;7.576;2023-10-08T04:51:54;99726.56;;;16.69;43.90
10587;BME280;5341;47.606;7.576;2023-10-08T04:54:25;99715.97;;;16.68;44.14
10587;BME280;5341;47.606;7.576;2023-10-08T04:56:57;99725.25;;;16.65;44.07
10587;BME280;5341;47.606;7.576;2023-10-08T04:59:25;99730.88;;;16.64;44.06
10587;BME280;5341;47.606;7.576;2023-10-08T05:02:00;99737.31;;;16.63;44.02
10587;BME280;5341;47.606;7.576;2023-10-08T05:04:46;99734.13;;;16.59;43.86
10587;BME280;5341;47.606;7.576;2023-10-08T05:07:22;99731.63;;;16.58;43.92
10587;BME280;5341;47.606;7.576;2023-10-08T05:10:04;99727.47;;;16.55;44.11
10587;BME280;5341;47.606;7.576;2023-10-08T05:12:57;99723.31;;;16.53;44.13
10587;BME280;5341;47.606;7.576;2023-10-08T05:15:42;99735.97;;;16.52;43.99
10587;BME280;5341;47.606;7.576;2023-10-08T05:18:29;99741.56;;;16.51;44.02
10587;BME280;5341;47.606;7.576;2023-10-08T05:21:25;99742.81;;;16.48;44.29
10587;BME280;5341;47.606;7.576;2023-10-08T05:23:52;99747.38;;;16.48;44.27
10587;BME280;5341;47.606;7.576;2023-10-08T05:26:39;99745.88;;;16.45;44.04
10587;BME280;5341;47.606;7.576;2023-10-08T05:29:10;99752.31;;;16.44;44.26
10587;BME280;5341;47.606;7.576;2023-10-08T05:32:05;99758.13;;;16.41;44.19
10587;BME280;5341;47.606;7.576;2023-10-08T05:35:06;99762.69;;;16.40;44.17
10587;BME280;5341;47.606;7.576;2023-10-08T05:37:51;99766.63;;;16.38;44.40
10587;BME280;5341;47.606;7.576;2023-10-08T05:40:38;99772.22;;;16.36;44.46
10587;BME280;5341;47.606;7.576;2023-10-08T05:43:31;99765.16;;;16.35;44.23
10587;BME280;5341;47.606;7.576;2023-10-08T05:46:40;99774.25;;;16.34;44.48
10587;BME280;5341;47.606;7.576;2023-10-08T05:49:33;99778.81;;;16.34;44.31
10587;BME280;5341;47.606;7.576;2023-10-08T05:52:21;99790.44;;;16.34;44.20
10587;BME280;5341;47.606;7.576;2023-10-08T05:55:07;99790.63;;;16.33;44.46
10587;BME280;5341;47.606;7.576;2023-10-08T05:57:48;99785.25;;;16.33;44.22
10587;BME280;5341;47.606;7.576;2023-10-08T06:00:18;99780.69;;;16.33;44.30
10587;BME280;5341;47.606;7.576;2023-10-08T06:03:02;99782.75;;;16.31;44.03
10587;BME280;5341;47.606;7.576;2023-10-08T06:05:59;99775.28;;;16.33;44.55
10587;BME280;5341;47.606;7.576;2023-10-08T06:08:45;99781.72;;;16.32;44.29
10587;BME280;5341;47.606;7.576;2023-10-08T06:11:29;99770.06;;;16.32;44.37
10587;BME280;5341;47.606;7.576;2023-10-08T06:14:07;99770.91;;;16.32;44.40
10587;BME280;5341;47.606;7.576;2023-10-08T06:16:42;99767.38;;;16.32;44.12
10587;BME280;5341;47.606;7.576;2023-10-08T06:19:13;99761.97;;;16.32;44.15
10587;BME280;5341;47.606;7.576;2023-10-08T06:21:41;99765.31;;;16.34;44.30
10587;BME280;5341;47.606;7.576;2023-10-08T06:24:12;99758.03;;;16.34;44.18
10587;BME280;5341;47.606;7.576;2023-10-08T06:26:43;99761.56;;;16.35;44.39
10587;BME280;5341;47.606;7.576;2023-10-08T06:29:14;99765.16;;;16.35;44.55
10587;BME280;5341;47.606;7.576;2023-10-08T06:31:56;99764.94;;;16.37;44.41
10587;BME280;5341;47.606;7.576;2023-10-08T06:34:28;99766.63;;;16.38;44.22
10587;BME280;5341;47.606;7.576;2023-10-08T06:36:58;99760.19;;;16.39;44.23
10587;BME280;5341;47.606;7.576;2023-10-08T06:39:28;99767.25;;;16.40;44.56
10587;BME280;5341;47.606;7.576;2023-10-08T06:42:13;99765.38;;;16.40;44.42
10587;BME280;5341;47.606;7.576;2023-10-08T06:44:41;99777.00;;;16.41;44.34
10587;BME280;5341;47.606;7.576;2023-10-08T06:47:12;99776.81;;;16.42;44.67
10587;BME280;5341;47.606;7.576;2023-10-08T06:49:41;99772.03;;;16.45;44.82
10587;BME280;5341;47.606;7.576;2023-10-08T06:52:10;99775.59;;;16.45;44.99
10587;BME280;5341;47.606;7.576;2023-10-08T06:54:41;99778.09;;;16.47;45.01
10587;BME280;5341;47.606;7.576;2023-10-08T06:57:08;99772.50;;;16.48;44.66
10587;BME280;5341;47.606;7.576;2023-10-08T06:59:39;99772.94;;;16.52;44.84
10587;BME280;5341;47.606;7.576;2023-10-08T07:02:08;99769.00;;;16.54;44.78
10587;BME280;5341;47.606;7.576;2023-10-08T07:04:36;99769.25;;;16.59;44.74
10587;BME280;5341;47.606;7.576;2023-10-08T07:07:05;99765.34;;;16.62;45.21
10587;BME280;5341;47.606;7.576;2023-10-08T07:09:35;99764.94;;;16.65;45.42
10587;BME280;5341;47.606;7.576;2023-10-08T07:12:04;99760.00;;;16.68;45.36
10587;BME280;5341;47.606;7.576;2023-10-08T07:14:39;99765.00;;;16.72;45.85
10587;BME280;5341;47.606;7.576;2023-10-08T07:17:07;99764.44;;;16.76;45.80
10587;BME280;5341;47.606;7.576;2023-10-08T07:19:37;99765.69;;;16.80;45.56
10587;BME280;5341;47.606;7.576;2023-10-08T07:22:08;99766.34;;;16.82;46.02
10587;BME280;5341;47.606;7.576;2023-10-08T07:24:48;99775.72;;;16.86;45.84
10587;BME280;5341;47.606;7.576;2023-10-08T07:27:18;99771.78;;;16.89;45.71
10587;BME280;5341;47.606;7.576;2023-10-08T07:29:49;99778.66;;;16.91;45.93
10587;BME280;5341;47.606;7.576;2023-10-08T07:32:21;99778.25;;;16.94;46.03
10587;BME280;5341;47.606;7.576;2023-10-08T07:34:51;99782.25;;;16.98;46.21
10587;BME280;5341;47.606;7.576;2023-10-08T07:37:23;99770.81;;;17.03;46.10
10587;BME280;5341;47.606;7.576;2023-10-08T07:39:52;99783.56;;;17.09;46.23
10587;BME280;5341;47.606;7.576;2023-10-08T07:42:22;99791.91;;;17.14;46.47
10587;BME280;5341;47.606;7.576;2023-10-08T07:44:52;99783.19;;;17.19;46.04
10587;BME280;5341;47.606;7.576;2023-10-08T07:47:20;99786.97;;;17.24;46.26
10587;BME280;5341;47.606;7.576;2023-10-08T07:49:48;99794.47;;;17.29;46.23
10587;BME280;5341;47.606;7.576;2023-10-08T07:52:18;99784.94;;;17.33;46.10
10587;BME280;5341;47.606;7.576;2023-10-08T07:54:45;99797.00;;;17.37;46.00
10587;BME280;5341;47.606;7.576;2023-10-08T07:57:13;99794.53;;;17.42;46.07
10587;BME280;5341;47.606;7.576;2023-10-08T07:59:46;99799.34;;;17.47;46.10
10587;BME280;5341;47.606;7.576;2023-10-08T08:02:15;99794.56;;;17.49;46.05
10587;BME280;5341;47.606;7.576;2023-10-08T08:04:43;99800.41;;;17.52;46.26
10587;BME280;5341;47.606;7.576;2023-10-08T08:07:13;99790.22;;;17.54;46.33
10587;BME280;5341;47.606;7.576;2023-10-08T08:09:42;99786.09;;;17.58;45.83
10587;BME280;5341;47.606;7.576;2023-10-08T08:12:16;99796.28;;;17.63;46.04
10587;BME280;5341;47.606;7.576;2023-10-08T08:14:46;99789.41;;;17.67;46.57
10587;BME280;5341;47.606;7.576;2023-10-08T08:17:14;99799.69;;;17.72;46.42
10587;BME280;5341;47.606;7.576;2023-10-08T08:19:43;99800.72;;;17.77;46.48
10587;BME280;5341;47.606;7.576;2023-10-08T08:22:13;99806.38;;;17.82;46.35
10587;BME280;5341;47.606;7.576;2023-10-08T08:24:47;99797.44;;;17.89;46.41
10587;BME280;5341;47.606;7.576;2023-10-08T08:27:18;99799.56;;;17.93;46.07
10587;BME280;5341;47.606;7.576;2023-10-08T08:29:59;99800.38;;;18.00;46.49
10587;BME280;5341;47.606;7.576;2023-10-08T08:32:35;99811.03;;;18.08;46.34
10587;BME280;5341;47.606;7.576;2023-10-08T08:35:06;99812.50;;;18.18;46.67
10587;BME280;5341;47.606;7.576;2023-10-08T08:37:35;99810.63;;;18.25;46.32
10587;BME280;5341;47.606;7.576;2023-10-08T08:40:04;99803.56;;;18.30;46.42
10587;BME280;5341;47.606;7.576;2023-10-08T08:42:35;99807.72;;;18.39;46.43
10587;BME280;5341;47.606;7.576;2023-10-08T08:45:09;99804.00;;;18.47;46.54
10587;BME280;5341;47.606;7.576;2023-10-08T08:47:40;99813.78;;;18.55;46.48
10587;BME280;5341;47.606;7.576;2023-10-08T08:50:08;99812.75;;;18.62;46.72
10587;BME280;5341;47.606;7.576;2023-10-08T08:52:37;99810.06;;;18.69;46.29
10587;BME280;5341;47.606;7.576;2023-10-08T08:55:08;99806.28;;;18.77;46.27
10587;BME280;5341;47.606;7.576;2023-10-08T08:57:41;99806.91;;;18.85;46.31
10587;BME280;5341;47.606;7.576;2023-10-08T09:00:11;99802.34;;;18.92;46.37
10587;BME280;5341;47.606;7.576;2023-10-08T09:02:43;99808.34;;;19.01;46.22
10587;BME280;5341;47.606;7.576;2023-10-08T09:05:13;99808.13;;;19.09;46.29
10587;BME280;5341;47.606;7.576;2023-10-08T09:07:55;99805.59;;;19.21;46.14
10587;BME280;5341;47.606;7.576;2023-10-08T09:10:23;99811.66;;;19.29;46.29
10587;BME280;5341;47.606;7.576;2023-10-08T09:12:53;99800.34;;;19.39;46.48
10587;BME280;5341;47.606;7.576;2023-10-08T09:15:25;99812.38;;;19.50;46.48
10587;BME280;5341;47.606;7.576;2023-10-08T09:17:53;99808.88;;;19.56;46.19
10587;BME280;5341;47.606;7.576;2023-10-08T09:20:21;99805.91;;;19.64;45.99
10587;BME280;5341;47.606;7.576;2023-10-08T09:23:05;99808.16;;;19.74;45.97
10587;BME280;5341;47.606;7.576;2023-10-08T09:25:37;99805.41;;;19.80;45.75
10587;BME280;5341;47.606;7.576;2023-10-08T09:28:06;99806.63;;;19.91;46.04
10587;BME280;5341;47.606;7.576;2023-10-08T09:30:36;99802.78;;;19.99;46.00
10587;BME280;5341;47.606;7.576;2023-10-08T09:33:05;99810.69;;;20.07;45.94
10587;BME280;5341;47.606;7.576;2023-10-08T09:35:33;99794.38;;;20.13;46.03
10587;BME280;5341;47.606;7.576;2023-10-08T09:38:02;99804.75;;;20.23;45.57
10587;BME280;5341;47.606;7.576;2023-10-08T09:40:31;99803.19;;;20.34;45.75
10587;BME280;5341;47.606;7.576;2023-10-08T09:42:59;99790.00;;;20.44;45.76
10587;BME280;5341;47.606;7.576;2023-10-08T09:45:30;99800.59;;;20.52;45.44
10587;BME280;5341;47.606;7.576;2023-10-08T09:48:01;99793.00;;;20.61;45.18
10587;BME280;5341;47.606;7.576;2023-10-08T09:50:36;99799.56;;;20.71;45.04
10587;BME280;5341;47.606;7.576;2023-10-08T09:53:08;99802.63;;;20.82;45.11
10587;BME280;5341;47.606;7.576;2023-10-08T09:55:44;99792.91;;;20.92;45.21
10587;BME280;5341;47.606;7.576;2023-10-08T09:58:15;99796.19;;;21.01;45.20
10587;BME280;5341;47.606;7.576;2023-10-08T10:00:44;99782.28;;;21.09;45.17
10587;BME280;5341;47.606;7.576;2023-10-08T10:03:16;99788.00;;;21.19;44.67
10587;BME280;5341;47.606;7.576;2023-10-08T10:05:44;99789.66;;;21.27;44.71
10587;BME280;5341;47.606;7.576;2023-10-08T10:08:14;99785.56;;;21.36;44.64
10587;BME280;5341;47.606;7.576;2023-10-08T10:10:42;99792.59;;;21.44;44.46
10587;BME280;5341;47.606;7.576;2023-10-08T10:13:16;99791.81;;;21.55;44.05
10587;BME280;5341;47.606;7.576;2023-10-08T10:15:44;99787.50;;;21.65;44.01
10587;BME280;5341;47.606;7.576;2023-10-08T10:18:27;99783.41;;;21.75;43.88
10587;BME280;5341;47.606;7.576;2023-10-08T10:20:58;99780.13;;;21.84;43.60
10587;BME280;5341;47.606;7.576;2023-10-08T10:23:37;99787.53;;;21.96;43.66
10587;BME280;5341;47.606;7.576;2023-10-08T10:26:20;99781.53;;;22.05;43.26
10587;BME280;5341;47.606;7.576;2023-10-08T10:29:21;99788.69;;;22.18;43.03
10587;BME280;5341;47.606;7.576;2023-10-08T10:31:52;99783.97;;;22.25;43.17
10587;BME280;5341;47.606;7.576;2023-10-08T10:34:25;99783.41;;;22.35;42.69
10587;BME280;5341;47.606;7.576;2023-10-08T10:36:55;99775.47;;;22.45;42.46
10587;BME280;5341;47.606;7.576;2023-10-08T10:39:25;99782.25;;;22.54;42.31
10587;BME280;5341;47.606;7.576;2023-10-08T10:41:55;99775.97;;;22.65;41.94
10587;BME280;5341;47.606;7.576;2023-10-08T10:44:27;99777.53;;;22.73;41.89
10587;BME280;5341;47.606;7.576;2023-10-08T10:46:56;99775.28;;;22.81;41.71
10587;BME280;5341;47.606;7.576;2023-10-08T10:49:40;99777.44;;;22.91;41.09
10587;BME280;5341;47.606;7.576;2023-10-08T10:52:21;99776.25;;;22.99;41.01
10587;BME280;5341;47.606;7.576;2023-10-08T10:55:01;99769.94;;;23.10;40.98
10587;BME280;5341;47.606;7.576;2023-10-08T10:57:47;99769.59;;;23.18;41.11
10587;BME280;5341;47.606;7.576;2023-10-08T11:00:21;99770.06;;;23.27;40.90
10587;BME280;5341;47.606;7.576;2023-10-08T11:03:03;99760.41;;;23.36;40.71
10587;BME280;5341;47.606;7.576;2023-10-08T11:05:45;99758.13;;;23.45;40.60
10587;BME280;5341;47.606;7.576;2023-10-08T11:08:18;99756.94;;;23.52;40.42
10587;BME280;5341;47.606;7.576;2023-10-08T11:10:49;99754.91;;;23.59;40.44
10587;BME280;5341;47.606;7.576;2023-10-08T11:13:23;99747.16;;;23.68;40.08
10587;BME280;5341;47.606;7.576;2023-10-08T11:15:54;99751.16;;;23.77;39.88
10587;BME280;5341;47.606;7.576;2023-10-08T11:18:25;99744.47;;;23.85;39.63
10587;BME280;5341;47.606;7.576;2023-10-08T11:21:06;99744.66;;;23.95;39.49
10587;BME280;5341;47.606;7.576;2023-10-08T11:23:42;99747.25;;;24.02;39.39
10587;BME280;5341;47.606;7.576;2023-10-08T11:26:12;99745.78;;;24.11;39.10
10587;BME280;5341;47.606;7.576;2023-10-08T11:28:42;99740.97;;;24.18;39.08
10587;BME280;5341;47.606;7.576;2023-10-08T11:31:14;99740.31;;;24.27;39.13
10587;BME280;5341;47.606;7.576;2023-10-08T11:33:46;99741.25;;;24.33;38.89
10587;BME280;5341;47.606;7.576;2023-10-08T11:36:22;99744.41;;;24.42;38.80
10587;BME280;5341;47.606;7.576;2023-10-08T11:38:54;99738.28;;;24.51;38.66
10587;BME280;5341;47.606;7.576;2023-10-08T11:41:27;99738.69;;;24.60;38.62
10587;BME280;5341;47.606;7.576;2023-10-08T11:43:56;99736.59;;;24.67;38.63
10587;BME280;5341;47.606;7.576;2023-10-08T11:46:26;99733.44;;;24.75;38.54
10587;BME280;5341;47.606;7.576;2023-10-08T11:48:59;99738.50;;;24.83;38.17
10587;BME280;5341;47.606;7.576;2023-10-08T11:51:32;99735.06;;;24.93;37.99
10587;BME280;5341;47.606;7.576;2023-10-08T11:54:01;99732.75;;;25.02;37.97
10587;BME280;5341;47.606;7.576;2023-10-08T11:56:28;99734.81;;;25.11;37.67
10587;BME280;5341;47.606;7.576;2023-10-08T11:58:56;99732.47;;;25.20;37.11
10587;BME280;5341;47.606;7.576;2023-10-08T12:01:24;99729.25;;;25.28;37.18
10587;BME280;5341;47.606;7.576;2023-10-08T12:03:53;99729.13;;;25.40;36.66
10587;BME280;5341;47.606;7.576;2023-10-08T12:06:25;99728.69;;;25.48;36.61
10587;BME280;5341;47.606;7.576;2023-10-08T12:08:57;99718.94;;;25.57;36.78
10587;BME280;5341;47.606;7.576;2023-10-08T12:11:25;99716.81;;;25.64;36.31
10587;BME280;5341;47.606;7.576;2023-10-08T12:13:57;99709.81;;;25.74;35.63
10587;BME280;5341;47.606;7.576;2023-10-08T12:16:26;99715.41;;;25.84;35.70
10587;BME280;5341;47.606;7.576;2023-10-08T12:18:56;99709.19;;;25.93;35.31
10587;BME280;5341;47.606;7.576;2023-10-08T12:21:26;99709.03;;;26.05;34.93
10587;BME280;5341;47.606;7.576;2023-10-08T12:23:57;99711.28;;;26.13;34.55
10587;BME280;5341;47.606;7.576;2023-10-08T12:26:25;99707.81;;;26.23;34.52
10587;BME280;5341;47.606;7.576;2023-10-08T12:28:53;99697.19;;;26.32;34.61
10587;BME280;5341;47.606;7.576;2023-10-08T12:31:21;99697.81;;;26.39;34.57
10587;BME280;5341;47.606;7.576;2023-10-08T12:33:50;99696.78;;;26.45;34.31
10587;BME280;5341;47.606;7.576;2023-10-08T12:36:19;99689.66;;;26.49;34.92
10587;BME280;5341;47.606;7.576;2023-10-08T12:38:49;99689.13;;;26.52;34.82
10587;BME280;5341;47.606;7.576;2023-10-08T12:41:25;99687.25;;;26.57;34.38
10587;BME280;5341;47.606;7.576;2023-10-08T12:43:53;99684.25;;;26.64;34.22
10587;BME280;5341;47.606;7.576;2023-10-08T12:46:21;99678.84;;;26.74;34.12
10587;BME280;5341;47.606;7.576;2023-10-08T12:48:52;99675.88;;;26.81;34.53
10587;BME280;5341;47.606;7.576;2023-10-08T12:51:20;99679.44;;;26.86;34.35
10587;BME280;5341;47.606;7.576;2023-10-08T12:53:53;99677.84;;;26.96;33.80
10587;BME280;5341;47.606;7.576;2023-10-08T12:56:32;99673.00;;;27.03;33.97
10587;BME280;5341;47.606;7.576;2023-10-08T12:59:02;99671.63;;;27.05;34.54
10587;BME280;5341;47.606;7.576;2023-10-08T13:01:33;99674.09;;;27.12;34.29
10587;BME280;5341;47.606;7.576;2023-10-08T13:04:02;99676.88;;;27.17;34.33
10587;BME280;5341;47.606;7.576;2023-10-08T13:06:33;99669.19;;;27.19;33.98
10587;BME280;5341;47.606;7.576;2023-10-08T13:09:03;99665.38;;;27.25;34.42
10587;BME280;5341;47.606;7.576;2023-10-08T13:11:40;99665.69;;;27.29;34.58
10587;BME280;5341;47.606;7.576;2023-10-08T13:14:08;99663.22;;;27.32;34.48
10587;BME280;5341;47.606;7.576;2023-10-08T13:16:37;99667.63;;;27.38;34.29
10587;BME280;5341;47.606;7.576;2023-10-08T13:19:04;99655.00;;;27.42;34.45
10587;BME280;5341;47.606;7.576;2023-10-08T13:21:34;99659.13;;;27.45;34.30
10587;BME280;5341;47.606;7.576;2023-10-08T13:24:03;99653.91;;;27.49;34.52
10587;BME280;5341;47.606;7.576;2023-10-08T13:26:35;99653.38;;;27.52;35.27
10587;BME280;5341;47.606;7.576;2023-10-08T13:29:05;99648.16;;;27.55;35.58
10587;BME280;5341;47.606;7.576;2023-10-08T13:31:35;99647.31;;;27.60;34.13
10587;BME280;5341;47.606;7.576;2023-10-08T13:34:02;99651.22;;;27.69;33.69
10587;BME280;5341;47.606;7.576;2023-10-08T13:36:34;99651.53;;;27.78;33.27
10587;BME280;5341;47.606;7.576;2023-10-08T13:39:05;99645.72;;;27.84;32.57